Slater, Minnesota
Current Conditions -  °F | °C
As of 4:36 AM on Thursday 27 Nov 2014 (Local Time) from KXVG Reporting Station
Clear Clear  
Wind Chill: -8°   Ceiling: Unl
Heat Index: -8°   Visibility: 10mi
Dew Point: -11°   Wind: 0mph
Humidity: 84%   Direction: NA
Pressure: 30.46"   Gusts: NA
Location:  47.0973°N, 93.9173°W
Report Text: KXVG 271036Z AUTO 00000KT 10SM CLR M22/M24 A3046 RMK AO2
Loading
Personal Weather Stations






























Interactive Weather Map New forecast layout! Learn more

10-Day Weather Forecast

Advertisements
Track Severe Weather on mobile